You are not logged in, Click here to log in
香港國際機場HKG / VHHH 香港翔天路1號
ICAO: VHHH Country: 香港翔天路1號
Latitude: 22.308 Longitude: 113.918
Total Arrivals: 695 Total Departures: 745
Latest Arrival: CI981 (RCKH-VHHH)CHU. CHUHAO Latest Departure: BR2898 (VHHH-RCTP)Lun. Wang
Scenery: http://www.qtc-hk.com/wp-content/uploads/2013/12/20110405092437553.jpg
METAR : VHHH 312100Z 07007KT 9999 FEW030 22/18 Q1016 NOSIG

香港國際機場HKG

You are accessing this site from IP address 34.201.9.19. Virtual Airline. CMS by phpVMS.Website designed by Zumeweb and edited by Theo Bearman.
There is 0 User(s) Online: | and 25 Guest(s) Online.
All information on this site is for fight simulation purposes only. This site is for flight logging for pilots of Virtual Airline&模擬飛行論壇 FlySim only.